Time;durP1;ratioP1;P1;durP2;ratioP2;P2;SDS_P1;SDS_P2;PMS_P1;PMS_P2;Temp;Humidity;BMP_temperature;BMP_pressure;BME280_temperature;BME280_humidity;BME280_pressure;Samples;Min_cycle;Max_cycle;Signal;HPM_P1;HPM_P2
2022/09/25 00:01:02;;;;;;;10.70;4.32;;;9.00;99.90;;;;;;4941373;29;20086;-93
2022/09/25 00:03:30;;;;;;;9.05;4.28;;;9.00;99.90;;;;;;4933634;29;20442;-93
2022/09/25 00:06:11;;;;;;;9.85;4.28;;;8.80;99.90;;;;;;4931337;29;20054;-93
2022/09/25 00:08:37;;;;;;;15.20;4.53;;;8.90;99.90;;;;;;4936513;29;20035;-93
2022/09/25 00:11:11;;;;;;;12.20;4.40;;;8.90;99.90;;;;;;4931479;29;20058;-93
2022/09/25 00:13:37;;;;;;;7.10;3.80;;;8.90;99.90;;;;;;4932826;29;20056;-93
2022/09/25 00:16:03;;;;;;;10.00;4.30;;;8.80;99.90;;;;;;4933899;29;20039;-94
2022/09/25 00:21:15;;;;;;;10.57;4.30;;;8.80;99.90;;;;;;4947374;29;20513;-93
2022/09/25 00:23:43;;;;;;;12.48;4.10;;;8.80;99.90;;;;;;4934660;29;20050;-92
2022/09/25 00:26:11;;;;;;;9.68;4.45;;;8.80;99.90;;;;;;4918629;29;20039;-93
2022/09/25 00:28:38;;;;;;;7.07;3.90;;;8.90;99.90;;;;;;4925845;29;20035;-93
2022/09/25 00:31:05;;;;;;;6.32;4.10;;;8.90;99.90;;;;;;4928920;29;20043;-92
2022/09/25 00:33:32;;;;;;;9.35;3.95;;;8.80;99.90;;;;;;4939923;29;20105;-93
2022/09/25 00:36:03;;;;;;;7.72;3.85;;;8.80;99.90;;;;;;4920971;29;20114;-93
2022/09/25 00:38:33;;;;;;;13.00;4.07;;;8.60;99.90;;;;;;4925520;29;20042;-93
2022/09/25 00:40:59;;;;;;;6.25;4.30;;;8.70;99.90;;;;;;4921055;29;20043;-92
2022/09/25 00:43:44;;;;;;;9.93;3.88;;;8.70;99.90;;;;;;4916832;29;20058;-93
2022/09/25 00:46:13;;;;;;;10.80;3.88;;;8.80;99.90;;;;;;4905037;29;20483;-93
2022/09/25 00:48:50;;;;;;;9.05;4.10;;;8.90;99.90;;;;;;4934694;29;20138;-93
2022/09/25 00:51:19;;;;;;;8.70;3.97;;;8.90;99.90;;;;;;4917900;29;20050;-93
2022/09/25 00:53:45;;;;;;;8.77;4.00;;;8.70;99.90;;;;;;4931134;29;20483;-93
2022/09/25 00:56:13;;;;;;;9.30;4.20;;;8.70;99.90;;;;;;4928841;29;20043;-93
2022/09/25 00:58:40;;;;;;;9.65;4.40;;;8.70;99.90;;;;;;4910683;29;20097;-93
2022/09/25 01:01:06;;;;;;;7.78;3.45;;;8.70;99.90;;;;;;4913154;29;20051;-94
2022/09/25 01:03:33;;;;;;;8.15;3.88;;;8.70;99.90;;;;;;4933794;29;20135;-93
2022/09/25 01:06:00;;;;;;;7.50;3.42;;;8.70;99.90;;;;;;4913818;29;20569;-94
2022/09/25 01:08:29;;;;;;;9.27;4.03;;;8.60;99.90;;;;;;4933230;29;20050;-93
2022/09/25 01:10:55;;;;;;;10.32;3.63;;;8.70;99.90;;;;;;4916299;29;20044;-93
2022/09/25 01:13:21;;;;;;;9.93;4.05;;;8.70;99.90;;;;;;4927535;29;20062;-93
2022/09/25 01:15:53;;;;;;;8.15;3.50;;;8.70;99.90;;;;;;4913906;29;20219;-93
2022/09/25 01:18:49;;;;;;;7.72;4.50;;;8.60;99.90;;;;;;4917941;29;20105;-93
2022/09/25 01:21:54;;;;;;;8.38;3.67;;;8.50;99.90;;;;;;4921226;29;20047;-93
2022/09/25 01:25:18;;;;;;;7.90;3.80;;;8.60;99.90;;;;;;4886653;29;20083;-93
2022/09/25 01:28:20;;;;;;;9.00;3.55;;;8.80;99.90;;;;;;4899793;29;20047;-93
2022/09/25 01:30:52;;;;;;;8.98;4.57;;;8.60;99.90;;;;;;4941922;29;20081;-94
2022/09/25 01:33:25;;;;;;;10.80;4.07;;;8.60;99.90;;;;;;4934948;29;20510;-93
2022/09/25 01:36:12;;;;;;;11.82;4.65;;;8.50;99.90;;;;;;4918980;29;20050;-93
2022/09/25 01:38:51;;;;;;;10.07;3.88;;;8.50;99.90;;;;;;4930660;29;20118;-93
2022/09/25 01:41:39;;;;;;;11.18;4.00;;;8.50;99.90;;;;;;4920147;29;20070;-93
2022/09/25 01:44:14;;;;;;;5.72;2.88;;;8.50;99.90;;;;;;4917988;29;20131;-93
2022/09/25 01:46:52;;;;;;;7.85;3.97;;;8.40;99.90;;;;;;4916091;29;20052;-94
2022/09/25 01:49:32;;;;;;;4.70;3.28;;;8.40;99.90;;;;;;4915385;29;20050;-93
2022/09/25 01:52:01;;;;;;;10.82;4.07;;;8.20;99.90;;;;;;4925642;29;20058;-93
2022/09/25 01:54:35;;;;;;;9.95;4.03;;;8.50;99.90;;;;;;4908510;29;20402;-93
2022/09/25 01:57:08;;;;;;;13.00;5.18;;;8.50;99.90;;;;;;4906551;29;20050;-94
2022/09/25 01:59:56;;;;;;;9.85;4.40;;;8.50;99.90;;;;;;4932315;29;20028;-93
2022/09/25 02:02:26;;;;;;;11.48;4.22;;;8.50;99.90;;;;;;4918202;29;20036;-93
2022/09/25 02:04:55;;;;;;;10.48;3.92;;;8.60;99.90;;;;;;4932394;29;20144;-93
2022/09/25 02:07:27;;;;;;;13.65;5.07;;;8.30;99.90;;;;;;4910189;29;20043;-93
2022/09/25 02:09:57;;;;;;;10.60;3.90;;;8.40;99.90;;;;;;4912535;29;20123;-93
2022/09/25 02:12:33;;;;;;;8.00;3.97;;;8.50;99.90;;;;;;4910889;29;20063;-94
2022/09/25 02:15:13;;;;;;;9.48;4.18;;;8.50;99.90;;;;;;4902299;29;20111;-93
2022/09/25 02:20:49;;;;;;;19.42;6.00;;;8.50;99.90;;;;;;4944681;29;20131;-94
2022/09/25 02:23:19;;;;;;;11.70;4.45;;;8.40;99.90;;;;;;4913682;29;20051;-93
2022/09/25 02:25:55;;;;;;;11.63;4.80;;;8.50;99.90;;;;;;4923436;29;20036;-94
2022/09/25 02:28:25;;;;;;;6.60;4.40;;;8.60;99.90;;;;;;4912346;29;20459;-92
2022/09/25 02:30:54;;;;;;;12.20;4.70;;;8.60;99.90;;;;;;4929015;29;20340;-94
2022/09/25 02:33:20;;;;;;;10.13;4.05;;;8.50;99.90;;;;;;4923292;29;20071;-94
2022/09/25 02:35:46;;;;;;;6.78;3.17;;;8.50;99.90;;;;;;4933461;29;20043;-93
2022/09/25 02:38:12;;;;;;;9.60;4.53;;;8.20;99.90;;;;;;4930156;29;20047;-93
2022/09/25 02:41:17;;;;;;;11.40;4.13;;;8.20;99.90;;;;;;4919939;29;20049;-94
2022/09/25 02:44:10;;;;;;;10.93;4.25;;;8.30;99.90;;;;;;4923787;29;20043;-94
2022/09/25 02:47:05;;;;;;;8.93;4.00;;;8.40;99.90;;;;;;4928301;29;20051;-94
2022/09/25 02:49:37;;;;;;;7.60;4.45;;;8.50;99.90;;;;;;4907733;29;20379;-94
2022/09/25 02:52:45;;;;;;;12.38;4.28;;;8.40;99.90;;;;;;4920947;29;20036;-93
2022/09/25 02:55:32;;;;;;;11.82;4.30;;;8.60;99.90;;;;;;4885461;29;20379;-94
2022/09/25 02:58:37;;;;;;;8.55;4.00;;;8.70;99.90;;;;;;4902506;29;20288;-93
2022/09/25 03:01:05;;;;;;;7.87;3.63;;;8.70;99.90;;;;;;4921583;29;20036;-93
2022/09/25 03:03:33;;;;;;;12.15;4.45;;;8.80;99.90;;;;;;4920386;29;20672;-94
2022/09/25 03:06:06;;;;;;;10.85;4.53;;;8.70;99.90;;;;;;4902885;29;20047;-93
2022/09/25 03:08:38;;;;;;;12.75;4.15;;;8.70;99.90;;;;;;4908857;29;20043;-93
2022/09/25 03:11:15;;;;;;;12.30;4.97;;;8.60;99.90;;;;;;4928040;29;20396;-93
2022/09/25 03:13:42;;;;;;;7.03;4.22;;;8.70;99.90;;;;;;4926517;29;20063;-93
2022/09/25 03:16:19;;;;;;;11.18;4.57;;;8.60;99.90;;;;;;4927618;29;20043;-93
2022/09/25 03:18:49;;;;;;;5.95;3.72;;;8.60;99.90;;;;;;4915644;29;20127;-92
2022/09/25 03:21:15;;;;;;;7.82;4.10;;;8.80;99.90;;;;;;4931027;29;20047;-93
2022/09/25 03:23:40;;;;;;;14.50;4.80;;;8.60;99.90;;;;;;4911465;29;20276;-93
2022/09/25 03:26:06;;;;;;;8.43;3.95;;;8.70;99.90;;;;;;4906865;29;20373;-93
2022/09/25 03:28:32;;;;;;;11.45;4.00;;;8.60;99.90;;;;;;4909667;29;20048;-94
2022/09/25 03:31:10;;;;;;;10.32;3.97;;;8.60;99.90;;;;;;4910753;29;20487;-94
2022/09/25 03:33:41;;;;;;;10.55;4.43;;;8.70;99.90;;;;;;4908353;29;20052;-94
2022/09/25 03:36:17;;;;;;;10.02;4.22;;;8.60;99.90;;;;;;4920538;29;20048;-93
2022/09/25 03:38:44;;;;;;;7.93;4.15;;;8.70;99.90;;;;;;4909383;29;20051;-93
2022/09/25 03:41:12;;;;;;;11.02;3.97;;;8.80;99.90;;;;;;4908958;29;20036;-93
2022/09/25 03:43:40;;;;;;;9.65;4.45;;;8.80;99.90;;;;;;4907184;29;20541;-93
2022/09/25 03:46:08;;;;;;;9.07;3.70;;;8.80;99.90;;;;;;4915429;29;20051;-92
2022/09/25 03:48:40;;;;;;;10.32;3.90;;;8.90;99.90;;;;;;4912363;29;20043;-92
2022/09/25 03:51:10;;;;;;;9.10;4.10;;;8.80;99.90;;;;;;4925693;29;20036;-91
2022/09/25 03:53:36;;;;;;;11.10;4.15;;;8.80;99.90;;;;;;4907500;29;20036;-92
2022/09/25 03:56:05;;;;;;;11.10;3.67;;;8.90;99.90;;;;;;4910504;29;20039;-92
2022/09/25 03:58:40;;;;;;;11.43;4.20;;;8.80;99.90;;;;;;4915905;29;20047;-93
2022/09/25 04:01:09;;;;;;;13.90;5.75;;;8.80;99.90;;;;;;4911609;29;20496;-93
2022/09/25 04:03:49;;;;;;;10.30;4.40;;;8.90;99.90;;;;;;4909831;29;20052;-92
2022/09/25 04:06:17;;;;;;;9.27;4.00;;;8.90;99.90;;;;;;4930040;29;20044;-92
2022/09/25 04:08:45;;;;;;;13.75;4.05;;;9.00;99.90;;;;;;4919956;29;20039;-93
2022/09/25 04:11:11;;;;;;;8.77;3.55;;;8.90;99.90;;;;;;4909623;29;20044;-95
2022/09/25 04:13:37;;;;;;;7.55;3.72;;;9.00;99.90;;;;;;4918791;29;20043;-93
2022/09/25 04:16:04;;;;;;;10.55;4.05;;;9.00;99.90;;;;;;4907699;29;20451;-93
2022/09/25 04:18:33;;;;;;;8.73;3.92;;;9.00;99.90;;;;;;4911809;29;20127;-93
2022/09/25 04:21:00;;;;;;;9.43;4.28;;;9.00;99.90;;;;;;4923190;29;20044;-92
2022/09/25 04:23:26;;;;;;;8.65;3.90;;;9.00;99.90;;;;;;4924449;29;20059;-93
2022/09/25 04:25:52;;;;;;;12.60;4.07;;;9.00;99.90;;;;;;4909489;29;20147;-93
2022/09/25 04:28:24;;;;;;;8.65;3.58;;;8.80;99.90;;;;;;4908878;29;20139;-91
2022/09/25 04:30:50;;;;;;;9.90;4.50;;;8.90;99.90;;;;;;4924520;29;20538;-92
2022/09/25 04:36:02;;;;;;;12.00;3.97;;;8.90;99.90;;;;;;4923054;29;20154;-93
2022/09/25 04:38:31;;;;;;;16.48;5.63;;;8.70;99.90;;;;;;4925772;29;20627;-88
2022/09/25 04:40:59;;;;;;;11.10;4.30;;;8.60;99.90;;;;;;4921798;29;20071;-93
2022/09/25 04:43:29;;;;;;;11.60;4.20;;;8.80;99.90;;;;;;4910009;29;20044;-92
2022/09/25 04:46:01;;;;;;;6.80;3.72;;;8.60;99.90;;;;;;4916556;29;20058;-94
2022/09/25 04:48:29;;;;;;;17.17;3.78;;;8.60;99.90;;;;;;4911234;29;20058;-92
2022/09/25 04:50:54;;;;;;;9.63;4.28;;;8.60;99.90;;;;;;4923911;29;20044;-93
2022/09/25 04:53:24;;;;;;;10.63;3.85;;;8.60;99.90;;;;;;4908048;29;20051;-93
2022/09/25 04:55:54;;;;;;;9.13;3.80;;;8.70;99.90;;;;;;4909026;29;20075;-91
2022/09/25 04:58:21;;;;;;;12.80;4.00;;;8.60;99.90;;;;;;4908973;29;20058;-92
2022/09/25 05:00:47;;;;;;;8.90;3.60;;;8.70;99.90;;;;;;4910916;29;20345;-91
2022/09/25 05:03:13;;;;;;;11.95;4.03;;;8.70;99.90;;;;;;4911931;29;20051;-92
2022/09/25 05:05:38;;;;;;;16.15;4.60;;;8.70;99.90;;;;;;4909787;29;20499;-92
2022/09/25 05:08:04;;;;;;;7.10;3.90;;;8.70;99.90;;;;;;4907696;29;20042;-94
2022/09/25 05:10:35;;;;;;;9.52;4.00;;;8.70;99.90;;;;;;4903988;29;20083;-92
2022/09/25 05:13:02;;;;;;;11.80;4.07;;;8.70;99.90;;;;;;4909310;29;20135;-94
2022/09/25 05:15:30;;;;;;;8.43;3.75;;;8.70;99.90;;;;;;4922287;29;20574;-92
2022/09/25 05:18:12;;;;;;;6.70;3.55;;;8.60;99.90;;;;;;4909509;29;20357;-94
2022/09/25 05:20:38;;;;;;;6.85;3.50;;;8.50;99.90;;;;;;4917285;29;20126;-92
2022/09/25 05:23:06;;;;;;;10.77;3.92;;;8.50;99.90;;;;;;4909260;29;20072;-93
2022/09/25 05:25:39;;;;;;;11.70;3.72;;;8.60;99.90;;;;;;4906679;29;20273;-94
2022/09/25 05:28:08;;;;;;;7.18;2.80;;;8.60;99.90;;;;;;4908328;29;20151;-92
2022/09/25 05:30:39;;;;;;;7.38;2.72;;;8.40;99.90;;;;;;4909321;29;20200;-92
2022/09/25 05:33:23;;;;;;;9.02;4.10;;;8.40;99.90;;;;;;4909086;29;20044;-93
2022/09/25 05:35:49;;;;;;;5.97;3.80;;;8.40;99.90;;;;;;4926474;29;20067;-92
2022/09/25 05:38:18;;;;;;;5.28;3.60;;;8.60;99.90;;;;;;4904180;29;20499;-93
2022/09/25 05:40:44;;;;;;;9.52;3.65;;;8.60;99.90;;;;;;4922258;29;20039;-93
2022/09/25 05:43:11;;;;;;;6.32;3.20;;;8.70;99.90;;;;;;4907006;29;20039;-92
2022/09/25 05:46:02;;;;;;;9.55;3.60;;;8.70;99.90;;;;;;4906874;29;20055;-92
2022/09/25 05:48:31;;;;;;;9.80;3.75;;;8.70;99.90;;;;;;4911976;29;20047;-92
2022/09/25 05:50:57;;;;;;;8.50;3.53;;;8.70;99.90;;;;;;4903281;29;20042;-93
2022/09/25 05:53:24;;;;;;;9.80;3.72;;;8.80;99.90;;;;;;4906993;29;20047;-92
2022/09/25 05:55:56;;;;;;;10.23;3.80;;;8.80;99.90;;;;;;4922465;29;20051;-92
2022/09/25 05:58:23;;;;;;;11.90;3.25;;;8.80;99.90;;;;;;4903593;29;20051;-92
2022/09/25 06:00:49;;;;;;;5.93;3.83;;;8.90;99.90;;;;;;4916869;29;20251;-92
2022/09/25 06:03:15;;;;;;;10.13;3.53;;;8.90;99.90;;;;;;4906408;29;20048;-93
2022/09/25 06:05:45;;;;;;;7.30;3.38;;;8.80;99.90;;;;;;4908823;29;20046;-92
2022/09/25 06:08:14;;;;;;;9.07;3.40;;;8.80;99.90;;;;;;4924256;29;20618;-92
2022/09/25 06:10:40;;;;;;;8.02;3.40;;;8.80;99.90;;;;;;4922391;29;20032;-90
2022/09/25 06:13:07;;;;;;;6.55;3.40;;;8.90;99.90;;;;;;4905185;29;20416;-88
2022/09/25 06:15:43;;;;;;;6.28;3.28;;;8.90;99.90;;;;;;4889838;29;20052;-88
2022/09/25 06:18:23;;;;;;;7.13;3.30;;;8.90;99.90;;;;;;4921893;29;20129;-89
2022/09/25 06:20:50;;;;;;;7.18;3.42;;;9.00;99.90;;;;;;4916711;29;20041;-92
2022/09/25 06:23:19;;;;;;;6.15;3.25;;;9.10;99.90;;;;;;4901426;29;20047;-92
2022/09/25 06:25:45;;;;;;;7.30;3.30;;;9.20;99.90;;;;;;4905741;29;20558;-91
2022/09/25 06:28:11;;;;;;;7.20;3.92;;;9.10;99.90;;;;;;4916115;29;20384;-92
2022/09/25 06:30:44;;;;;;;6.22;3.33;;;9.20;99.90;;;;;;4905610;29;20035;-94
2022/09/25 06:33:12;;;;;;;9.95;3.72;;;9.30;99.90;;;;;;4910200;29;20047;-92
2022/09/25 06:35:43;;;;;;;10.75;5.05;;;9.40;99.90;;;;;;4921932;29;20043;-92
2022/09/25 06:38:10;;;;;;;7.00;3.00;;;9.30;99.90;;;;;;4922995;29;20046;-94
2022/09/25 06:40:39;;;;;;;5.85;3.08;;;9.50;99.90;;;;;;4912697;29;20032;-91
2022/09/25 06:43:22;;;;;;;7.05;3.05;;;9.50;99.90;;;;;;4903329;29;20072;-93
2022/09/25 06:46:02;;;;;;;8.80;3.35;;;9.60;99.90;;;;;;4907111;29;20059;-91
2022/09/25 06:48:31;;;;;;;5.97;2.97;;;9.60;99.90;;;;;;4906601;29;20048;-93
2022/09/25 06:51:00;;;;;;;5.63;2.85;;;9.70;99.90;;;;;;4915447;29;20443;-92
2022/09/25 06:53:26;;;;;;;6.90;3.30;;;9.70;99.90;;;;;;4905966;29;20051;-92
2022/09/25 06:56:04;;;;;;;4.00;3.03;;;9.90;99.90;;;;;;4903977;29;20366;-92
2022/09/25 06:58:42;;;;;;;7.32;2.78;;;9.90;99.90;;;;;;4930978;29;20047;-93
2022/09/25 07:01:17;;;;;;;6.07;2.88;;;10.00;99.90;;;;;;4905250;29;20047;-94
2022/09/25 07:03:46;;;;;;;;;;;10.10;99.90;;;;;;4906267;29;20051;-92
2022/09/25 07:06:25;;;;;;;5.97;2.50;;;10.10;99.90;;;;;;4905198;29;20272;-92
2022/09/25 07:09:06;;;;;;;9.95;3.35;;;10.30;99.90;;;;;;4917062;29;20051;-93
2022/09/25 07:11:42;;;;;;;4.97;2.53;;;10.40;99.90;;;;;;4907426;29;20586;-93
2022/09/25 07:17:01;;;;;;;8.82;3.30;;;10.70;99.90;;;;;;4916935;29;20055;-92
2022/09/25 07:19:27;;;;;;;8.88;2.97;;;10.80;99.90;;;;;;4906215;29;20559;-93
2022/09/25 07:21:57;;;;;;;8.85;3.15;;;10.90;99.90;;;;;;4900396;29;20166;-92
2022/09/25 07:24:33;;;;;;;12.73;3.15;;;11.00;99.90;;;;;;4903129;29;20047;-92
2022/09/25 07:27:11;;;;;;;6.90;3.08;;;11.00;99.90;;;;;;4909096;29;20051;-93
2022/09/25 07:29:47;;;;;;;10.13;3.10;;;11.20;99.90;;;;;;4902061;29;20083;-92
2022/09/25 07:32:14;;;;;;;6.40;2.60;;;11.30;99.90;;;;;;4922038;29;20079;-92
2022/09/25 07:34:51;;;;;;;6.88;2.60;;;11.30;99.90;;;;;;4905071;29;20519;-92
2022/09/25 07:37:27;;;;;;;7.57;2.30;;;11.50;99.90;;;;;;4917445;29;20112;-94
2022/09/25 07:40:05;;;;;;;6.68;2.67;;;11.60;99.90;;;;;;4904150;29;20058;-93
2022/09/25 07:42:38;;;;;;;9.68;2.20;;;11.70;99.90;;;;;;4905133;29;20058;-93
2022/09/25 07:45:14;;;;;;;8.50;2.15;;;11.90;99.90;;;;;;4903947;29;20572;-92
2022/09/25 07:47:45;;;;;;;6.30;2.47;;;12.10;99.90;;;;;;4889951;29;20393;-93
2022/09/25 07:50:23;;;;;;;7.65;1.95;;;12.20;99.90;;;;;;4891483;29;22461;-93
2022/09/25 07:52:59;;;;;;;4.85;1.88;;;12.40;99.90;;;;;;4905840;29;20045;-93
2022/09/25 07:55:38;;;;;;;7.72;2.25;;;12.30;99.90;;;;;;4898295;29;20052;-92
2022/09/25 07:58:17;;;;;;;6.18;1.83;;;12.40;99.90;;;;;;4905232;29;20535;-92
2022/09/25 08:00:44;;;;;;;11.05;2.00;;;12.60;99.90;;;;;;4891843;29;20047;-91
2022/09/25 08:03:15;;;;;;;6.30;1.90;;;12.80;99.90;;;;;;4896374;29;20059;-92
2022/09/25 08:05:45;;;;;;;5.22;2.10;;;12.70;99.90;;;;;;4910810;29;20077;-93
2022/09/25 08:08:20;;;;;;;5.25;1.80;;;12.80;99.90;;;;;;4890785;29;20183;-92
2022/09/25 08:10:52;;;;;;;6.45;1.90;;;12.70;99.90;;;;;;4922100;29;20137;-94
2022/09/25 08:13:50;;;;;;;2.97;1.63;;;12.90;99.90;;;;;;4891251;29;20583;-92
2022/09/25 08:16:41;;;;;;;8.10;1.92;;;12.90;99.90;;;;;;4890594;29;20056;-93
2022/09/25 08:19:33;;;;;;;8.43;2.08;;;12.90;99.90;;;;;;4903849;29;20052;-92
2022/09/25 08:22:04;;;;;;;9.00;2.00;;;13.30;99.90;;;;;;4891424;29;20119;-93
2022/09/25 08:24:36;;;;;;;8.88;1.90;;;13.50;99.90;;;;;;4906136;29;20420;-94
2022/09/25 08:27:23;;;;;;;4.03;1.80;;;13.90;99.90;;;;;;4911182;29;20452;-94
2022/09/25 08:29:52;;;;;;;9.77;2.03;;;14.00;99.90;;;;;;4892831;29;20032;-93
2022/09/25 08:32:30;;;;;;;4.13;1.50;;;14.00;99.90;;;;;;4895273;29;20492;-93
2022/09/25 08:35:02;;;;;;;4.95;1.55;;;14.20;99.90;;;;;;4886097;29;20435;-93
2022/09/25 08:37:34;;;;;;;5.40;1.38;;;14.40;99.90;;;;;;4906360;29;20035;-93
2022/09/25 08:40:03;;;;;;;4.20;1.48;;;14.50;99.90;;;;;;4903990;29;20050;-93
2022/09/25 08:43:00;;;;;;;5.80;1.52;;;14.60;99.90;;;;;;4894948;29;20048;-93
2022/09/25 08:49:03;;;;;;;2.33;0.90;;;14.80;1.00;;;;;;4942114;29;20300;-92
2022/09/25 08:51:51;;;;;;;2.58;0.93;;;14.90;99.90;;;;;;4914475;29;20044;-94
2022/09/25 08:54:26;;;;;;;2.90;1.00;;;15.10;99.90;;;;;;4915586;29;20132;-93
2022/09/25 08:57:00;;;;;;;7.05;1.40;;;14.60;1.00;;;;;;4908321;29;20046;-93
2022/09/25 08:59:32;;;;;;;8.70;1.73;;;15.10;99.90;;;;;;4929166;29;20058;-93
2022/09/25 09:02:02;;;;;;;3.83;1.05;;;15.00;1.00;;;;;;4923391;29;20151;-92
2022/09/25 09:04:32;;;;;;;5.38;1.38;;;14.60;99.90;;;;;;4913831;29;20066;-93
2022/09/25 09:07:10;;;;;;;3.90;1.00;;;14.40;99.90;;;;;;4910969;29;20527;-92
2022/09/25 09:09:40;;;;;;;3.95;1.20;;;13.70;99.90;;;;;;4916225;29;20111;-91
2022/09/25 09:12:11;;;;;;;4.90;1.27;;;13.10;99.90;;;;;;4907151;29;20050;-91
2022/09/25 09:15:29;;;;;;;2.08;1.00;;;13.00;99.90;;;;;;4903127;29;20074;-90
2022/09/25 09:18:13;;;;;;;4.32;0.98;;;12.80;99.90;;;;;;4916898;29;20158;-92
2022/09/25 09:21:04;;;;;;;4.32;1.33;;;12.70;99.90;;;;;;4906116;29;20180;-92
2022/09/25 09:24:08;;;;;;;4.78;1.15;;;12.80;99.90;;;;;;4905951;29;20047;-92
2022/09/25 09:26:52;;;;;;;3.45;1.30;;;12.90;99.90;;;;;;4876516;29;20479;-92
2022/09/25 09:29:52;;;;;;;2.38;1.00;;;12.90;99.90;;;;;;4914539;29;20044;-93
2022/09/25 09:32:44;;;;;;;2.05;1.10;;;13.00;99.90;;;;;;4894974;29;20466;-94
2022/09/25 09:35:43;;;;;;;2.60;1.25;;;13.00;99.90;;;;;;4905874;29;20098;-94
2022/09/25 09:38:21;;;;;;;5.22;1.30;;;13.40;99.90;;;;;;4921851;29;20050;-92
2022/09/25 09:40:59;;;;;;;4.03;1.73;;;13.50;99.90;;;;;;4907165;29;20071;-93
2022/09/25 09:43:46;;;;;;;2.30;1.13;;;13.40;99.90;;;;;;4906015;29;20094;-91
2022/09/25 09:46:48;;;;;;;4.32;1.13;;;13.30;99.90;;;;;;4905049;29;20063;-93
2022/09/25 09:49:26;;;;;;;5.38;1.20;;;13.50;99.90;;;;;;4906753;29;20669;-94
2022/09/25 09:52:16;;;;;;;2.80;1.10;;;13.60;99.90;;;;;;4929876;29;20110;-93
2022/09/25 09:55:04;;;;;;;3.80;1.27;;;13.60;99.90;;;;;;4904345;29;20357;-93
2022/09/25 09:57:37;;;;;;;3.92;1.00;;;13.70;99.90;;;;;;4899436;29;20063;-92
2022/09/25 10:00:15;;;;;;;3.38;1.20;;;13.70;99.90;;;;;;4905810;29;20032;-91
2022/09/25 10:02:56;;;;;;;3.42;1.40;;;13.70;99.90;;;;;;4904488;29;20039;-93
2022/09/25 10:05:42;;;;;;;3.05;1.20;;;13.60;99.90;;;;;;4904531;29;20566;-94
2022/09/25 10:08:16;;;;;;;3.28;1.30;;;13.90;99.90;;;;;;4915958;29;20579;-92
2022/09/25 10:11:15;;;;;;;3.20;1.15;;;13.90;99.90;;;;;;4904962;29;20046;-92
2022/09/25 10:13:45;;;;;;;5.50;1.40;;;13.90;99.90;;;;;;4932423;28;20159;-93
2022/09/25 10:16:23;;;;;;;5.38;1.20;;;14.20;99.90;;;;;;4918596;29;20179;-93
2022/09/25 10:19:10;;;;;;;2.75;1.13;;;14.50;99.90;;;;;;4938131;29;20043;-93
2022/09/25 10:21:43;;;;;;;2.55;0.90;;;14.90;99.90;;;;;;4908620;29;20081;-94
2022/09/25 10:24:12;;;;;;;4.35;1.20;;;15.10;99.90;;;;;;4923913;29;20410;-92
2022/09/25 10:26:42;;;;;;;3.72;1.00;;;15.10;99.90;;;;;;4906603;29;20146;-92
2022/09/25 10:29:32;;;;;;;3.55;1.02;;;15.30;99.90;;;;;;4912452;29;20051;-93
2022/09/25 10:32:37;;;;;;;1.40;0.80;;;15.20;99.90;;;;;;4901581;29;20036;-92
2022/09/25 10:35:37;;;;;;;4.05;1.23;;;15.10;99.90;;;;;;4906489;29;20058;-92
2022/09/25 10:38:46;;;;;;;4.05;1.10;;;15.00;99.90;;;;;;4920940;29;20122;-94
2022/09/25 10:41:31;;;;;;;3.08;1.02;;;15.00;14.00;;;;;;4916959;29;20051;-93
2022/09/25 11:51:16;;;;;;;2.35;0.98;;;15.00;1.00;;;;;;719725;23;20309;31
2022/09/25 11:53:59;;;;;;;3.10;0.90;;;14.80;77.30;;;;;;4867250;29;20149;-90
2022/09/25 11:56:40;;;;;;;1.95;0.70;;;14.70;99.90;;;;;;4883477;29;20053;-87
2022/09/25 11:59:43;;;;;;;2.00;0.73;;;14.60;99.90;;;;;;4852299;29;20040;-88
2022/09/25 12:02:36;;;;;;;2.05;1.08;;;14.70;1.00;;;;;;4882635;29;20049;-89
2022/09/25 12:05:47;;;;;;;2.97;1.02;;;15.00;99.90;;;;;;4846750;29;20041;-88
2022/09/25 12:08:46;;;;;;;1.23;0.50;;;15.70;99.90;;;;;;4868077;29;20041;-92
2022/09/25 12:11:47;;;;;;;1.58;0.60;;;16.00;99.90;;;;;;4892278;29;20052;-91
2022/09/25 12:14:25;;;;;;;1.75;0.52;;;16.50;99.90;;;;;;4871685;29;20048;-90
2022/09/25 12:17:13;;;;;;;2.08;0.73;;;16.70;1.00;;;;;;4867080;29;20495;-92
2022/09/25 12:20:19;;;;;;;6.22;0.85;;;16.90;99.50;;;;;;4852358;29;20052;-91
2022/09/25 12:23:07;;;;;;;;;;;17.00;99.90;;;;;;4894167;29;20370;-88
2022/09/25 12:25:48;;;;;;;3.53;0.80;;;17.40;99.90;;;;;;4867397;29;19930;-92
2022/09/25 12:28:19;;;;;;;1.55;0.70;;;17.80;99.90;;;;;;4853736;29;20119;-85
2022/09/25 12:30:57;;;;;;;2.65;0.55;;;17.60;99.90;;;;;;4872341;29;20501;-85
2022/09/25 12:33:56;;;;;;;2.97;0.70;;;16.80;99.90;;;;;;4869367;29;20052;-85
2022/09/25 12:36:35;;;;;;;2.95;0.60;;;16.30;1.00;;;;;;4870500;29;20052;-84
2022/09/25 12:39:42;;;;;;;2.25;0.50;;;16.10;99.90;;;;;;4867615;29;20472;-86
2022/09/25 12:42:52;;;;;;;2.35;0.73;;;15.60;1.00;;;;;;4840014;29;20063;-85
2022/09/25 12:45:24;;;;;;;4.20;0.70;;;15.40;99.90;;;;;;4797948;29;20057;-85
2022/09/25 12:48:04;;;;;;;3.15;0.80;;;15.30;1.00;;;;;;4841388;29;20061;-86
2022/09/25 12:50:43;;;;;;;4.35;1.25;;;15.20;1.00;;;;;;4851006;29;20109;-86
2022/09/25 12:53:23;;;;;;;2.58;0.90;;;15.10;99.90;;;;;;4855685;29;20193;-87
2022/09/25 12:56:05;;;;;;;1.70;0.75;;;15.10;1.00;;;;;;4846172;29;20097;-85
2022/09/25 12:58:49;;;;;;;4.90;0.82;;;15.10;1.00;;;;;;4831827;29;20819;-86
2022/09/25 13:01:30;;;;;;;4.03;0.93;;;15.00;99.90;;;;;;4826346;29;20045;-85
2022/09/25 13:04:04;;;;;;;2.17;0.90;;;15.30;99.90;;;;;;4815895;29;20882;-85
2022/09/25 13:06:46;;;;;;;2.72;0.98;;;16.10;99.90;;;;;;4862184;29;20092;-85
2022/09/25 13:09:34;;;;;;;3.72;0.93;;;16.20;1.00;;;;;;4844481;29;20053;-85
2022/09/25 13:12:07;;;;;;;4.40;0.80;;;15.60;1.00;;;;;;4830460;29;20042;-84
2022/09/25 13:14:43;;;;;;;1.70;0.77;;;16.40;99.90;;;;;;4858873;29;20387;-85
2022/09/25 13:17:14;;;;;;;1.52;0.70;;;16.60;99.90;;;;;;4857965;29;20073;-85
2022/09/25 13:19:40;;;;;;;5.03;1.08;;;16.80;99.90;;;;;;4845153;29;20041;-85
2022/09/25 13:22:20;;;;;;;3.15;0.65;;;16.90;99.90;;;;;;4861163;29;20275;-85
2022/09/25 13:24:55;;;;;;;3.67;1.05;;;17.50;99.90;;;;;;4854403;29;20041;-85
2022/09/25 13:27:23;;;;;;;0.70;0.50;;;17.10;99.90;;;;;;4851830;29;20136;-85
2022/09/25 13:29:54;;;;;;;1.25;0.63;;;16.80;2.50;;;;;;4850011;29;20052;-85
2022/09/25 13:32:27;;;;;;;1.85;0.52;;;16.80;99.90;;;;;;4822666;29;20128;-86
2022/09/25 13:34:59;;;;;;;2.63;0.63;;;16.60;1.00;;;;;;4829436;29;20109;-86
2022/09/25 13:37:30;;;;;;;4.32;0.70;;;16.90;1.00;;;;;;4830372;29;20100;-85
2022/09/25 13:42:46;;;;;;;3.25;0.77;;;17.20;34.90;;;;;;4829018;29;20339;-85
2022/09/25 13:45:26;;;;;;;1.65;0.50;;;16.80;99.90;;;;;;4828948;29;20156;-85
2022/09/25 13:48:01;;;;;;;3.22;0.60;;;16.80;97.00;;;;;;4842660;29;20216;-85
2022/09/25 13:50:30;;;;;;;3.30;0.80;;;17.10;99.90;;;;;;4830329;29;20049;-85
2022/09/25 13:53:17;;;;;;;2.08;0.80;;;17.20;1.00;;;;;;4864611;29;20052;-85
2022/09/25 13:55:42;;;;;;;1.60;0.50;;;17.40;1.00;;;;;;4849657;29;20053;-86
2022/09/25 13:58:24;;;;;;;3.20;0.80;;;17.30;99.90;;;;;;4848468;29;20518;-86
2022/09/25 14:00:57;;;;;;;2.83;0.80;;;16.60;1.00;;;;;;4845737;29;20045;-84
2022/09/25 14:03:45;;;;;;;4.47;0.70;;;16.10;1.00;;;;;;4867245;29;20053;-85
2022/09/25 14:06:26;;;;;;;2.58;0.68;;;16.00;99.90;;;;;;4879782;29;20063;-84
2022/09/25 14:08:55;;;;;;;2.17;0.77;;;15.80;99.90;;;;;;4846605;29;20382;-85
2022/09/25 14:11:30;;;;;;;6.22;1.00;;;15.70;99.90;;;;;;4873457;29;20252;-84
2022/09/25 14:13:58;;;;;;;2.28;0.80;;;15.70;99.90;;;;;;4863046;29;20056;-84
2022/09/25 14:16:38;;;;;;;5.35;1.00;;;15.80;99.90;;;;;;4852830;29;20704;-84
2022/09/25 14:19:07;;;;;;;3.33;0.73;;;15.80;99.90;;;;;;4872310;29;20056;-84
2022/09/25 14:21:33;;;;;;;3.88;0.90;;;15.70;99.90;;;;;;4847895;29;20052;-83
2022/09/25 14:24:27;;;;;;;3.75;0.80;;;15.80;99.90;;;;;;4845238;29;20497;-85
2022/09/25 14:26:54;;;;;;;3.15;0.85;;;15.80;90.10;;;;;;4860294;29;20394;-85
2022/09/25 14:29:31;;;;;;;3.72;0.80;;;16.00;99.90;;;;;;4845074;29;20036;-85
2022/09/25 14:32:35;;;;;;;5.60;0.70;;;16.50;1.00;;;;;;4858486;29;20053;-86
2022/09/25 14:35:26;;;;;;;4.30;0.82;;;16.50;99.90;;;;;;4868709;29;20077;-86
2022/09/25 14:38:17;;;;;;;4.07;0.70;;;16.50;99.90;;;;;;4844090;29;20544;-85
2022/09/25 14:40:57;;;;;;;3.58;0.98;;;16.40;99.90;;;;;;4863842;29;20373;-85
2022/09/25 14:43:53;;;;;;;5.07;0.77;;;16.70;1.00;;;;;;4880919;29;20048;-86
2022/09/25 14:46:20;;;;;;;2.08;0.63;;;17.70;99.90;;;;;;4860616;29;20340;-85
2022/09/25 14:48:58;;;;;;;2.75;0.80;;;18.70;99.90;;;;;;4861916;29;20501;-85
2022/09/25 14:51:25;;;;;;;2.88;0.60;;;19.20;1.00;;;;;;4860276;29;20558;-85
2022/09/25 14:54:00;;;;;;;2.20;0.60;;;19.40;1.00;;;;;;4856814;29;20049;-86
2022/09/25 14:56:32;;;;;;;4.68;0.88;;;20.00;99.90;;;;;;4831080;29;20076;-86
2022/09/25 14:59:11;;;;;;;2.75;0.85;;;20.30;99.90;;;;;;4813502;29;20046;-86
2022/09/25 15:01:46;;;;;;;1.83;0.68;;;19.30;99.90;;;;;;4840105;29;20608;-86